Time;durP1;ratioP1;P1;durP2;ratioP2;P2;SDS_P1;SDS_P2;PMS_P1;PMS_P2;Temp;Humidity;BMP_temperature;BMP_pressure;BME280_temperature;BME280_humidity;BME280_pressure;Samples;Min_cycle;Max_cycle;Signal;HPM_P1;HPM_P2
2024/01/22 00:00:53;;;;;;;8.27;4.85;;;;;;;1.38;57.27;97410.38;6270696;23;20012;-80
2024/01/22 00:03:20;;;;;;;9.20;5.05;;;;;;;1.37;57.37;97410.47;6272711;22;20080;-81
2024/01/22 00:05:50;;;;;;;7.20;4.82;;;;;;;1.33;57.09;97396.19;6274273;23;20023;-80
2024/01/22 00:08:18;;;;;;;10.35;6.75;;;;;;;1.31;57.16;97398.03;6273588;22;20020;-80
2024/01/22 00:10:45;;;;;;;8.30;5.07;;;;;;;1.28;57.69;97393.13;6274001;23;20031;-80
2024/01/22 00:13:13;;;;;;;9.57;6.07;;;;;;;1.23;57.74;97394.25;6273188;22;20020;-80
2024/01/22 00:15:41;;;;;;;8.40;5.53;;;;;;;1.21;57.49;97388.41;6272307;23;20020;-82
2024/01/22 00:18:08;;;;;;;7.30;5.35;;;;;;;1.20;57.56;97378.22;6269960;23;20016;-83
2024/01/22 00:20:36;;;;;;;7.10;4.90;;;;;;;1.20;57.56;97391.91;6269574;23;20027;-83
2024/01/22 00:23:05;;;;;;;9.00;5.15;;;;;;;1.17;57.57;97376.66;6270015;22;20022;-83
2024/01/22 00:25:33;;;;;;;7.90;5.07;;;;;;;1.18;57.69;97377.50;6267736;23;20027;-83
2024/01/22 00:28:01;;;;;;;8.75;4.43;;;;;;;1.14;57.60;97371.75;6268845;23;20024;-83
2024/01/22 00:30:28;;;;;;;9.05;5.47;;;;;;;1.12;57.50;97367.66;6269357;23;20016;-83
2024/01/22 00:32:56;;;;;;;8.60;5.07;;;;;;;1.11;57.72;97366.81;6268262;22;20023;-83
2024/01/22 00:35:24;;;;;;;7.15;5.07;;;;;;;1.09;57.73;97352.41;6271518;23;20008;-80
2024/01/22 00:37:52;;;;;;;7.47;5.35;;;;;;;1.07;57.62;97352.50;6272365;23;20028;-80
2024/01/22 00:40:21;;;;;;;8.05;5.03;;;;;;;1.08;57.48;97350.78;6272927;23;20027;-80
2024/01/22 00:42:49;;;;;;;7.80;4.85;;;;;;;1.09;57.79;97349.84;6272746;22;20011;-81
2024/01/22 00:45:16;;;;;;;7.82;4.50;;;;;;;1.09;57.70;97348.09;6272362;23;20019;-83
2024/01/22 00:47:44;;;;;;;10.32;5.20;;;;;;;1.08;57.98;97333.63;6270160;23;20016;-83
2024/01/22 00:50:12;;;;;;;8.05;4.22;;;;;;;1.04;57.60;97339.88;6270323;23;20023;-83
2024/01/22 00:52:40;;;;;;;6.80;4.40;;;;;;;1.01;57.95;97334.97;6269885;22;20023;-83
2024/01/22 00:55:08;;;;;;;7.57;4.68;;;;;;;1.04;57.93;97334.75;6270080;23;20023;-83
2024/01/22 00:57:38;;;;;;;8.60;4.80;;;;;;;1.08;57.74;97325.09;6270261;23;20016;-83
2024/01/22 01:00:08;;;;;;;8.50;5.38;;;;;;;1.08;58.06;97319.97;6269213;23;20035;-83
2024/01/22 01:02:35;;;;;;;9.55;4.97;;;;;;;1.11;57.79;97317.16;6270711;22;20016;-80
2024/01/22 01:05:04;;;;;;;8.20;5.20;;;;;;;1.10;57.75;97312.97;6269855;23;20023;-81
2024/01/22 01:07:31;;;;;;;6.43;4.82;;;;;;;1.11;57.67;97320.56;6271120;23;20035;-80
2024/01/22 01:09:59;;;;;;;7.40;4.90;;;;;;;1.13;57.19;97317.88;6271672;23;20040;-82
2024/01/22 01:12:27;;;;;;;7.30;4.82;;;;;;;1.12;57.63;97311.94;6268019;22;20024;-83
2024/01/22 01:14:56;;;;;;;6.97;4.50;;;;;;;1.10;57.43;97312.97;6267619;23;20016;-83
2024/01/22 01:17:23;;;;;;;7.60;4.55;;;;;;;1.09;57.28;97301.84;6267842;23;20013;-83
2024/01/22 01:19:51;;;;;;;8.35;4.35;;;;;;;1.09;57.36;97301.84;6268000;23;20024;-83
2024/01/22 01:22:19;;;;;;;11.13;5.38;;;;;;;1.12;57.40;97298.28;6267356;23;20075;-83
2024/01/22 01:24:46;;;;;;;7.03;4.18;;;;;;;1.16;57.14;97300.53;6266687;22;20050;-83
2024/01/22 01:27:15;;;;;;;6.20;4.30;;;;;;;1.19;56.92;97297.72;6268112;23;20055;-83
2024/01/22 01:29:43;;;;;;;6.70;3.92;;;;;;;1.22;57.00;97289.81;6268090;23;20016;-83
2024/01/22 01:32:11;;;;;;;6.05;3.97;;;;;;;1.27;56.33;97278.38;6267244;23;20020;-83
2024/01/22 01:34:39;;;;;;;7.13;4.60;;;;;;;1.30;56.46;97265.31;6267769;22;20020;-82
2024/01/22 01:37:06;;;;;;;8.25;4.32;;;;;;;1.32;56.11;97255.75;6266815;23;20020;-83
2024/01/22 01:39:34;;;;;;;7.50;3.85;;;;;;;1.34;56.02;97241.06;6266977;23;20076;-83
2024/01/22 01:42:02;;;;;;;5.72;3.85;;;;;;;1.39;55.71;97242.34;6266079;23;20017;-83
2024/01/22 01:44:48;;;;;;;4.93;3.35;;;;;;;1.44;55.16;97242.88;6266035;22;20032;-83
2024/01/22 01:47:18;;;;;;;6.07;3.80;;;;;;;1.48;55.20;97240.88;6266020;23;20024;-83
2024/01/22 01:49:47;;;;;;;5.53;3.95;;;;;;;1.51;55.70;97244.97;6266241;23;20023;-83
2024/01/22 01:52:16;;;;;;;5.93;3.53;;;;;;;1.52;55.62;97241.50;6266005;23;20020;-83
2024/01/22 01:54:45;;;;;;;5.53;3.90;;;;;;;1.50;55.74;97231.31;6265226;22;20043;-83
2024/01/22 01:57:13;;;;;;;6.53;4.60;;;;;;;1.47;55.45;97223.81;6265869;23;20016;-83
2024/01/22 01:59:43;;;;;;;7.82;4.05;;;;;;;1.48;55.18;97230.59;6266094;23;20016;-83
2024/01/22 02:02:11;;;;;;;7.22;4.38;;;;;;;1.53;55.55;97248.25;6270724;22;20012;-82
2024/01/22 02:04:40;;;;;;;5.75;3.65;;;;;;;1.55;55.02;97244.69;6273748;22;20008;-82
2024/01/22 02:07:07;;;;;;;5.82;3.80;;;;;;;1.53;55.32;97243.97;6273438;22;20004;-83
2024/01/22 02:09:48;;;;;;;6.85;3.72;;;;;;;1.53;55.18;97250.84;6267092;23;20064;-83
2024/01/22 02:12:17;;;;;;;6.22;3.72;;;;;;;1.52;55.60;97251.78;6266769;23;20024;-83
2024/01/22 02:14:45;;;;;;;6.65;3.80;;;;;;;1.52;55.88;97251.78;6264838;22;20020;-83
2024/01/22 02:17:13;;;;;;;6.22;4.65;;;;;;;1.50;55.95;97257.03;6264308;23;20027;-83
2024/01/22 02:19:42;;;;;;;6.57;4.63;;;;;;;1.45;55.68;97256.53;6264192;23;20461;-83
2024/01/22 02:22:11;;;;;;;8.35;4.85;;;;;;;1.42;55.88;97261.88;6264858;23;20024;-83
2024/01/22 02:24:40;;;;;;;7.63;4.13;;;;;;;1.43;55.94;97258.41;6266604;22;20028;-80
2024/01/22 02:27:07;;;;;;;6.40;4.40;;;;;;;1.41;56.31;97239.69;6266068;23;20051;-83
2024/01/22 02:29:35;;;;;;;7.88;4.28;;;;;;;1.40;56.19;97254.28;6273244;22;20016;-79
2024/01/22 02:32:04;;;;;;;6.55;4.10;;;;;;;1.35;56.47;97251.22;6273606;22;20027;-80
2024/01/22 02:34:31;;;;;;;7.07;4.68;;;;;;;1.32;56.46;97240.34;6273354;22;20031;-80
2024/01/22 02:36:59;;;;;;;7.68;4.85;;;;;;;1.28;56.72;97244.88;6272999;22;20032;-80
2024/01/22 02:39:27;;;;;;;8.65;4.38;;;;;;;1.21;56.64;97247.03;6268148;23;20024;-83
2024/01/22 02:41:56;;;;;;;9.52;3.97;;;;;;;1.16;57.03;97238.84;6265046;23;20020;-83
2024/01/22 02:44:24;;;;;;;6.20;3.95;;;;;;;1.13;57.40;97218.50;6264910;22;20020;-83
2024/01/22 02:46:51;;;;;;;6.57;4.30;;;;;;;1.12;57.54;97224.56;6265362;23;20020;-83
2024/01/22 02:49:19;;;;;;;7.25;3.80;;;;;;;1.15;58.33;97214.06;6267424;23;20046;-81
2024/01/22 02:51:47;;;;;;;8.02;3.75;;;;;;;1.20;58.40;97212.00;6267545;23;20055;-81
2024/01/22 02:54:15;;;;;;;5.93;3.20;;;;;;;1.31;58.73;97210.41;6266833;22;20027;-81
2024/01/22 02:56:43;;;;;;;7.45;3.17;;;;;;;1.40;58.74;97213.16;6267478;23;20494;-81
2024/01/22 02:59:12;;;;;;;6.72;3.15;;;;;;;1.50;59.07;97217.63;6267706;23;20030;-81
2024/01/22 03:01:40;;;;;;;5.65;3.08;;;;;;;1.56;59.37;97205.16;6268751;23;20023;-81
2024/01/22 03:04:08;;;;;;;7.40;3.35;;;;;;;1.65;59.93;97212.22;6269461;22;20031;-81
2024/01/22 03:06:37;;;;;;;4.93;2.53;;;;;;;1.77;60.22;97209.66;6268881;23;20020;-81
2024/01/22 03:09:05;;;;;;;9.00;2.50;;;;;;;1.87;60.55;97207.25;6268487;23;20020;-81
2024/01/22 03:11:32;;;;;;;5.97;2.90;;;;;;;1.96;60.38;97212.53;6269492;23;20023;-81
2024/01/22 03:14:00;;;;;;;5.07;2.63;;;;;;;2.05;60.28;97221.34;6269707;22;20016;-81
2024/01/22 03:16:29;;;;;;;6.53;2.75;;;;;;;2.13;60.45;97225.94;6269217;23;20020;-81
2024/01/22 03:18:57;;;;;;;5.10;3.00;;;;;;;2.20;60.45;97221.97;6268641;23;20009;-81
2024/01/22 03:21:25;;;;;;;4.00;2.50;;;;;;;2.26;60.11;97226.66;6269136;23;20016;-81
2024/01/22 03:23:53;;;;;;;4.90;2.42;;;;;;;2.32;60.42;97221.06;6268878;22;20027;-81
2024/01/22 03:26:21;;;;;;;5.63;3.05;;;;;;;2.40;60.12;97217.88;6268695;23;20358;-81
2024/01/22 03:28:49;;;;;;;4.20;2.70;;;;;;;2.45;59.98;97208.91;6268709;23;20050;-81
2024/01/22 03:31:21;;;;;;;5.63;2.33;;;;;;;2.46;59.86;97205.38;6269368;23;20039;-81
2024/01/22 03:33:50;;;;;;;5.03;2.53;;;;;;;2.48;59.93;97198.34;6269813;22;20016;-81
2024/01/22 03:36:18;;;;;;;6.25;3.17;;;;;;;2.51;59.73;97189.56;6269556;23;20050;-81
2024/01/22 03:38:47;;;;;;;4.63;2.50;;;;;;;2.53;59.21;97166.28;6270778;23;20010;-81
2024/01/22 03:41:14;;;;;;;3.63;2.65;;;;;;;2.54;59.32;97168.75;6271561;23;20044;-81
2024/01/22 03:43:43;;;;;;;3.65;2.58;;;;;;;2.59;59.08;97181.28;6271038;22;20020;-81
2024/01/22 03:46:11;;;;;;;6.68;3.10;;;;;;;2.63;58.82;97174.94;6270130;23;20461;-81
2024/01/22 03:48:39;;;;;;;4.63;2.88;;;;;;;2.64;59.00;97161.94;6271004;23;20031;-81
2024/01/22 03:51:08;;;;;;;4.93;2.80;;;;;;;2.65;58.52;97160.19;6270995;23;20027;-81
2024/01/22 03:53:36;;;;;;;6.25;2.67;;;;;;;2.67;58.54;97160.91;6269738;22;20020;-81
2024/01/22 03:56:05;;;;;;;4.55;2.50;;;;;;;2.68;59.22;97165.09;6270268;23;20016;-81
2024/01/22 03:58:34;;;;;;;4.22;2.63;;;;;;;2.72;59.15;97160.53;6270239;23;20024;-81
2024/01/22 04:01:02;;;;;;;4.13;2.58;;;;;;;2.74;58.38;97158.66;6270551;23;20004;-81
2024/01/22 04:03:31;;;;;;;4.78;2.58;;;;;;;2.78;57.85;97148.00;6269847;22;20022;-81
2024/01/22 04:06:00;;;;;;;5.38;3.05;;;;;;;2.80;57.22;97135.81;6271206;23;20019;-81
2024/01/22 04:08:29;;;;;;;4.95;3.33;;;;;;;2.79;56.67;97141.91;6269188;23;20024;-81
2024/01/22 04:10:56;;;;;;;4.80;2.70;;;;;;;2.77;57.26;97138.63;6270964;23;20017;-81
2024/01/22 04:13:24;;;;;;;6.50;3.13;;;;;;;2.74;56.78;97146.59;6271339;22;20045;-81
2024/01/22 04:16:01;;;;;;;6.57;3.58;;;;;;;2.71;56.76;97144.25;6271900;23;20016;-81
2024/01/22 04:18:29;;;;;;;4.70;2.85;;;;;;;2.69;56.19;97143.56;6271840;23;20016;-81
2024/01/22 04:20:57;;;;;;;7.53;2.97;;;;;;;2.70;56.23;97141.81;6271264;23;20047;-81
2024/01/22 04:23:25;;;;;;;4.57;2.72;;;;;;;2.70;56.11;97137.47;6272067;22;20020;-81
2024/01/22 04:25:54;;;;;;;6.07;2.90;;;;;;;2.70;55.80;97142.63;6272072;23;20020;-81
2024/01/22 04:28:21;;;;;;;5.88;3.67;;;;;;;2.70;55.25;97127.16;6270318;23;20034;-81
2024/01/22 04:30:50;;;;;;;5.82;3.58;;;;;;;2.68;55.41;97124.69;6270260;23;20028;-81
2024/01/22 04:33:17;;;;;;;4.00;3.55;;;;;;;2.66;55.55;97120.59;6270732;22;20075;-80
2024/01/22 04:35:45;;;;;;;5.07;3.42;;;;;;;2.62;55.66;97119.22;6269930;23;20108;-81
2024/01/22 04:38:13;;;;;;;7.28;3.92;;;;;;;2.58;55.51;97120.38;6270359;23;20016;-81
2024/01/22 04:40:41;;;;;;;10.00;4.22;;;;;;;2.51;55.40;97124.38;6271199;23;20007;-81
2024/01/22 04:43:10;;;;;;;8.23;4.55;;;;;;;2.47;55.79;97129.78;6269207;22;20027;-81
2024/01/22 04:45:37;;;;;;;7.50;4.40;;;;;;;2.45;55.73;97128.25;6269594;23;20020;-81
2024/01/22 04:48:06;;;;;;;10.10;6.07;;;;;;;2.36;55.35;97122.06;6268678;23;20035;-81
2024/01/22 04:50:33;;;;;;;9.98;5.35;;;;;;;2.33;56.43;97124.84;6270698;23;20023;-81
2024/01/22 04:53:01;;;;;;;7.47;3.67;;;;;;;2.31;56.45;97102.75;6270348;22;20016;-81
2024/01/22 04:55:29;;;;;;;5.40;3.88;;;;;;;2.29;56.20;97097.69;6270043;23;20016;-81
2024/01/22 04:58:02;;;;;;;;;;;;;;;2.28;55.72;97096.06;6269747;23;20043;-81
2024/01/22 05:00:31;;;;;;;7.32;4.22;;;;;;;2.23;56.18;97091.28;6265726;23;19949;-81
2024/01/22 05:02:59;;;;;;;7.00;4.25;;;;;;;2.17;56.42;97102.03;6265765;22;20020;-80
2024/01/22 05:05:27;;;;;;;7.32;4.53;;;;;;;2.15;56.23;97103.09;6263665;23;20020;-83
2024/01/22 05:07:55;;;;;;;6.57;4.30;;;;;;;2.11;56.33;97084.50;6262881;23;20016;-83
2024/01/22 05:10:22;;;;;;;8.13;3.83;;;;;;;2.11;56.65;97083.69;6254869;23;20016;-83
2024/01/22 05:12:50;;;;;;;6.88;3.92;;;;;;;2.06;56.84;97074.56;6247025;22;20039;-82
2024/01/22 05:15:17;;;;;;;6.25;4.22;;;;;;;2.04;56.91;97079.00;6246856;23;20103;-82
2024/01/22 05:17:47;;;;;;;7.53;4.75;;;;;;;2.02;56.62;97068.00;6247892;23;20358;-82
2024/01/22 05:20:15;;;;;;;10.00;5.38;;;;;;;2.02;57.01;97083.44;6246532;23;20101;-82
2024/01/22 05:22:44;;;;;;;10.68;6.20;;;;;;;2.01;56.90;97075.81;6246295;22;20024;-82
2024/01/22 05:25:12;;;;;;;9.27;5.60;;;;;;;2.00;56.71;97067.28;6247601;23;20095;-79
2024/01/22 05:27:43;;;;;;;8.70;6.05;;;;;;;1.99;56.78;97069.97;6258284;23;20024;-82
2024/01/22 05:30:12;;;;;;;8.13;6.32;;;;;;;1.95;56.93;97064.25;6262000;23;20027;-82
2024/01/22 05:32:40;;;;;;;11.40;6.63;;;;;;;1.93;57.20;97071.28;6257288;22;20020;-80
2024/01/22 05:35:09;;;;;;;9.63;6.47;;;;;;;1.93;57.80;97071.28;6249534;23;20391;-81
2024/01/22 05:37:37;;;;;;;11.32;6.20;;;;;;;1.95;57.78;97063.44;6265427;23;20024;-82
2024/01/22 05:40:06;;;;;;;10.68;6.00;;;;;;;1.95;57.71;97071.97;6273564;22;20059;-82
2024/01/22 06:50:11;;;;;;;5.18;3.60;;;;;;;2.61;59.61;96996.53;6251100;22;20023;-79
2024/01/22 06:52:39;;;;;;;8.73;3.85;;;;;;;2.65;59.28;97005.66;6274633;22;20023;-79
2024/01/22 06:55:08;;;;;;;6.65;4.25;;;;;;;2.71;59.73;96997.41;6275886;22;20051;-79
2024/01/22 06:57:35;;;;;;;4.57;3.70;;;;;;;2.77;59.76;96994.34;6275992;22;20023;-79
2024/01/22 07:00:07;;;;;;;6.55;3.50;;;;;;;2.85;60.05;96994.56;6256088;22;20557;-79
2024/01/22 07:02:35;;;;;;;6.03;3.47;;;;;;;2.94;60.10;96994.75;6246772;22;20806;-81
2024/01/22 07:05:04;;;;;;;5.75;4.18;;;;;;;3.00;60.41;96989.13;6282326;22;20024;-82
2024/01/22 07:07:33;;;;;;;5.57;3.60;;;;;;;3.08;60.06;97002.19;6281773;22;20489;-80
2024/01/22 07:10:01;;;;;;;6.95;3.85;;;;;;;3.18;60.13;96991.94;6282532;22;20054;-84
2024/01/22 07:12:29;;;;;;;6.07;3.20;;;;;;;3.26;59.76;96990.38;6278767;22;20024;-82
2024/01/22 07:14:58;;;;;;;6.50;3.47;;;;;;;3.38;60.15;96992.88;6250855;23;20078;-82
2024/01/22 07:17:26;;;;;;;4.85;2.88;;;;;;;3.48;59.75;96991.19;6251118;23;20042;-80
2024/01/22 07:19:53;;;;;;;5.13;3.28;;;;;;;3.58;59.65;96992.03;6250770;23;20386;-85
2024/01/22 07:22:21;;;;;;;5.80;3.45;;;;;;;3.68;59.53;96984.34;6250035;22;20044;-86
2024/01/22 07:24:50;;;;;;;5.85;3.47;;;;;;;3.75;59.40;96977.72;6250897;23;20024;-80
2024/01/22 07:27:18;;;;;;;7.53;3.67;;;;;;;3.82;59.29;96980.59;6251496;23;20063;-78
2024/01/22 07:29:46;;;;;;;5.80;3.67;;;;;;;3.88;59.12;96975.72;6251213;23;20042;-82
2024/01/22 07:32:14;;;;;;;6.32;3.58;;;;;;;3.95;58.87;96965.69;6249677;23;20024;-79
2024/01/22 07:34:42;;;;;;;5.40;3.28;;;;;;;4.03;58.77;96972.81;6249812;23;20020;-79
2024/01/22 07:37:10;;;;;;;6.95;3.65;;;;;;;4.07;59.38;96963.84;6250966;23;20024;-82
2024/01/22 07:39:37;;;;;;;7.57;4.55;;;;;;;4.12;58.95;96970.22;6250058;23;20047;-84
2024/01/22 07:42:08;;;;;;;7.20;4.15;;;;;;;4.18;58.76;96973.25;6250115;23;20020;-80
2024/01/22 07:44:36;;;;;;;7.85;4.15;;;;;;;4.25;58.72;96976.94;6250379;22;20020;-80
2024/01/22 07:47:04;;;;;;;8.40;4.30;;;;;;;4.32;58.57;96973.66;6249435;23;20017;-81
2024/01/22 07:49:31;;;;;;;7.05;4.55;;;;;;;4.39;58.39;96991.22;6250081;23;20062;-82
2024/01/22 07:51:59;;;;;;;11.10;5.05;;;;;;;4.44;58.52;96979.53;6250196;23;20021;-80
2024/01/22 07:54:27;;;;;;;10.40;5.35;;;;;;;4.50;58.48;96962.69;6249385;22;20497;-78
2024/01/22 07:56:54;;;;;;;9.13;4.35;;;;;;;4.54;58.20;96967.44;6250061;23;20024;-79
2024/01/22 07:59:23;;;;;;;8.30;4.07;;;;;;;4.56;58.68;96972.47;6250276;23;20024;-81
2024/01/22 08:01:51;;;;;;;10.30;4.82;;;;;;;4.59;58.66;96985.16;6249814;23;20020;-80
2024/01/22 08:04:18;;;;;;;3.83;2.88;;;;;;;4.60;58.59;96986.75;6248600;22;20056;-83
2024/01/22 08:06:46;;;;;;;3.10;2.40;;;;;;;4.61;58.58;96995.31;6249675;23;20048;-78
2024/01/22 08:09:14;;;;;;;2.78;2.22;;;;;;;4.62;57.96;96989.22;6249092;23;20403;-79
2024/01/22 08:11:42;;;;;;;4.75;3.33;;;;;;;4.64;57.76;96989.91;6250501;23;20020;-82
2024/01/22 08:14:09;;;;;;;6.25;3.70;;;;;;;4.66;57.44;96991.41;6249846;22;20016;-83
2024/01/22 08:16:38;;;;;;;4.32;3.03;;;;;;;4.68;57.59;96988.66;6250846;23;20386;-83
2024/01/22 08:19:06;;;;;;;3.78;2.50;;;;;;;4.69;57.17;96985.94;6250093;23;20051;-81
2024/01/22 08:21:34;;;;;;;4.63;3.03;;;;;;;4.71;57.11;96972.91;6251159;23;20040;-81
2024/01/22 08:24:01;;;;;;;4.65;3.10;;;;;;;4.73;57.47;96971.00;6250895;22;20027;-82
2024/01/22 08:26:29;;;;;;;4.70;3.30;;;;;;;4.73;57.89;96971.00;6253111;23;20076;-80
2024/01/22 08:28:57;;;;;;;4.43;3.63;;;;;;;4.72;57.94;96953.84;6252593;23;20052;-78
2024/01/22 08:31:24;;;;;;;3.60;2.47;;;;;;;4.72;57.60;96956.44;6252642;23;20027;-83
2024/01/22 08:33:54;;;;;;;5.57;2.30;;;;;;;4.73;57.34;96937.41;6252280;22;20047;-80
2024/01/22 08:36:22;;;;;;;3.20;2.47;;;;;;;4.77;57.66;96946.53;6252659;23;20028;-82
2024/01/22 08:38:49;;;;;;;4.15;2.63;;;;;;;4.78;57.86;96940.38;6251869;23;20059;-81
2024/01/22 08:41:17;;;;;;;4.18;2.38;;;;;;;4.77;57.60;96940.50;6252366;23;20024;-80
2024/01/22 08:43:44;;;;;;;2.95;2.33;;;;;;;4.77;57.80;96941.34;6251193;22;20055;-82
2024/01/22 08:46:12;;;;;;;2.70;2.10;;;;;;;4.75;58.19;96944.06;6252404;23;20466;-81
2024/01/22 08:48:39;;;;;;;3.08;2.22;;;;;;;4.77;57.89;96937.94;6251431;23;20076;-81
2024/01/22 08:51:08;;;;;;;3.13;2.42;;;;;;;4.77;57.84;96925.84;6251983;23;20027;-80
2024/01/22 08:53:36;;;;;;;4.65;3.00;;;;;;;4.81;57.79;96932.38;6251182;22;20543;-81
2024/01/22 08:56:04;;;;;;;8.25;3.65;;;;;;;4.85;57.71;96932.91;6252062;23;20055;-84
2024/01/22 08:58:31;;;;;;;7.15;2.60;;;;;;;4.87;58.00;96921.47;6252185;23;20047;-86
2024/01/22 09:01:04;;;;;;;4.32;2.85;;;;;;;4.85;58.25;96927.72;6250538;23;20024;-77
2024/01/22 09:03:33;;;;;;;4.13;2.72;;;;;;;4.86;58.72;96922.44;6250225;22;20345;-81
2024/01/22 09:06:01;;;;;;;3.55;2.40;;;;;;;4.86;58.64;96912.09;6250870;23;20024;-83
2024/01/22 09:08:30;;;;;;;5.18;3.03;;;;;;;4.89;58.64;96909.22;6250463;23;20020;-79
2024/01/22 09:10:58;;;;;;;6.05;3.80;;;;;;;4.89;59.08;96909.22;6250706;23;20462;-81
2024/01/22 09:13:25;;;;;;;6.97;3.53;;;;;;;4.89;59.19;96898.88;6250847;22;20024;-77
2024/01/22 09:15:53;;;;;;;6.05;3.65;;;;;;;4.92;59.61;96903.78;6250989;23;20532;-77
2024/01/22 09:18:20;;;;;;;6.07;2.50;;;;;;;4.97;59.55;96908.53;6251792;23;20044;-77
2024/01/22 09:20:48;;;;;;;4.65;2.25;;;;;;;5.03;59.73;96889.06;6251211;23;20094;-84
2024/01/22 09:23:16;;;;;;;4.75;2.08;;;;;;;5.08;59.95;96895.44;6251500;22;20093;-80
2024/01/22 09:25:45;;;;;;;3.17;1.73;;;;;;;5.14;59.89;96909.59;6251793;23;20020;-78
2024/01/22 09:28:14;;;;;;;4.10;2.25;;;;;;;5.19;60.30;96904.81;6250778;23;20291;-79
2024/01/22 09:30:41;;;;;;;4.22;2.60;;;;;;;5.24;60.23;96909.56;6251637;23;20020;-83
2024/01/22 09:33:10;;;;;;;5.35;2.95;;;;;;;5.26;59.99;96900.69;6250083;22;20103;-83
2024/01/22 09:35:39;;;;;;;3.85;2.50;;;;;;;5.27;60.12;96904.94;6249425;23;20024;-84
2024/01/22 09:38:07;;;;;;;5.00;2.83;;;;;;;5.29;59.61;96895.25;6248932;23;20405;-82
2024/01/22 09:40:34;;;;;;;4.75;2.88;;;;;;;5.32;59.42;96894.97;6249220;23;20024;-80
2024/01/22 09:43:04;;;;;;;5.53;2.58;;;;;;;5.32;59.29;96887.22;6248509;22;20402;-77
2024/01/22 09:45:33;;;;;;;7.63;2.80;;;;;;;5.32;59.42;96883.81;6248621;23;20074;-77
2024/01/22 09:48:01;;;;;;;7.25;3.88;;;;;;;5.35;59.38;96899.03;6248867;23;20026;-78
2024/01/22 09:50:29;;;;;;;4.78;3.08;;;;;;;5.34;59.20;96890.47;6249142;23;20528;-80
2024/01/22 09:53:04;;;;;;;6.13;3.83;;;;;;;5.35;58.99;96886.91;6248711;22;20043;-81
2024/01/22 09:55:33;;;;;;;6.47;3.70;;;;;;;5.36;59.07;96883.38;6247818;23;20039;-79
2024/01/22 09:58:03;;;;;;;5.95;3.25;;;;;;;5.37;59.57;96879.81;6247284;23;20020;-81
2024/01/22 10:00:34;;;;;;;7.25;3.38;;;;;;;5.40;59.13;96883.94;6247601;23;20020;-79
2024/01/22 10:03:03;;;;;;;4.63;2.65;;;;;;;5.44;59.61;96869.72;6247020;22;20020;-78
2024/01/22 10:05:31;;;;;;;5.43;3.40;;;;;;;5.44;59.56;96859.38;6247949;23;20027;-77
2024/01/22 10:07:58;;;;;;;4.80;2.90;;;;;;;5.47;59.47;96860.88;6247671;23;20020;-76
2024/01/22 10:10:26;;;;;;;5.22;2.88;;;;;;;5.52;59.35;96858.66;6247387;23;20055;-79
2024/01/22 10:12:59;;;;;;;6.28;3.75;;;;;;;5.57;59.00;96864.22;6247719;22;20020;-78
2024/01/22 10:15:28;;;;;;;7.18;3.40;;;;;;;5.63;59.46;96855.88;6247839;23;20027;-78
2024/01/22 10:18:08;;;;;;;6.95;4.30;;;;;;;5.68;59.26;96850.28;6247307;23;20074;-78
2024/01/22 10:20:36;;;;;;;5.78;3.22;;;;;;;5.72;59.49;96849.84;6247893;23;20023;-79
2024/01/22 10:23:03;;;;;;;7.15;3.38;;;;;;;5.75;59.21;96841.78;6246799;22;20016;-80
2024/01/22 10:25:32;;;;;;;8.18;3.63;;;;;;;5.82;58.48;96833.47;6247329;23;20058;-78
2024/01/22 10:28:10;;;;;;;5.60;3.30;;;;;;;5.87;59.37;96836.41;6247727;23;20076;-77
2024/01/22 10:30:39;;;;;;;7.53;3.92;;;;;;;5.91;58.72;96832.56;6248631;23;20086;-79
2024/01/22 10:33:13;;;;;;;7.38;2.75;;;;;;;5.95;58.58;96832.16;6248255;22;20035;-82
2024/01/22 10:35:42;;;;;;;9.82;4.53;;;;;;;5.96;58.56;96826.00;6248121;23;20016;-77
2024/01/22 10:38:12;;;;;;;6.30;3.75;;;;;;;5.95;58.75;96826.19;6247751;23;20028;-79
2024/01/22 10:40:40;;;;;;;6.43;3.92;;;;;;;5.95;58.60;96818.41;6247413;23;20020;-78
2024/01/22 10:43:21;;;;;;;7.50;4.45;;;;;;;5.92;58.18;96816.88;6247543;22;20016;-78
2024/01/22 10:45:51;;;;;;;5.40;4.03;;;;;;;5.94;59.22;96812.38;6247738;23;20024;-81
2024/01/22 10:48:23;;;;;;;6.50;3.58;;;;;;;5.94;60.09;96794.25;6250301;23;20020;-79
2024/01/22 10:51:06;;;;;;;5.30;3.75;;;;;;;5.95;59.59;96793.31;6248022;23;20040;-79
2024/01/22 10:53:34;;;;;;;4.93;3.17;;;;;;;5.94;59.55;96775.31;6248029;22;20557;-79
2024/01/22 10:56:05;;;;;;;5.07;3.10;;;;;;;5.93;59.59;96771.09;6247917;23;20102;-78
2024/01/22 10:58:40;;;;;;;6.65;3.42;;;;;;;5.94;59.60;96767.53;6248049;23;20048;-80
2024/01/22 11:01:14;;;;;;;5.43;2.65;;;;;;;5.94;59.62;96757.19;6247477;23;20076;-81
2024/01/22 11:03:47;;;;;;;5.43;3.13;;;;;;;5.97;59.86;96759.53;6246962;22;20020;-80
2024/01/22 11:06:19;;;;;;;5.78;3.13;;;;;;;5.98;59.63;96750.78;6247829;23;20520;-78
2024/01/22 11:08:49;;;;;;;5.03;3.10;;;;;;;6.02;60.19;96746.13;6247677;23;20047;-80
2024/01/22 11:11:19;;;;;;;6.70;2.83;;;;;;;6.04;59.90;96747.59;6248372;23;20064;-77
2024/01/22 11:13:50;;;;;;;7.15;4.13;;;;;;;6.04;59.90;96739.81;6257049;22;20078;-83
2024/01/22 11:16:19;;;;;;;6.32;3.55;;;;;;;6.06;59.79;96727.53;6259925;23;20020;-80
2024/01/22 11:18:58;;;;;;;4.85;3.15;;;;;;;6.08;60.47;96733.38;6248538;23;20047;-80
2024/01/22 11:21:33;;;;;;;3.47;2.42;;;;;;;6.12;60.32;96736.47;6256984;23;20080;-82
2024/01/22 11:24:04;;;;;;;3.97;2.45;;;;;;;6.15;60.87;96741.38;6259202;22;20035;-84
2024/01/22 11:26:33;;;;;;;4.60;2.53;;;;;;;6.16;61.06;96728.25;6252654;23;20039;-85
2024/01/22 11:29:08;;;;;;;3.88;2.55;;;;;;;6.21;61.73;96729.56;6251191;23;20062;-83
2024/01/22 11:31:37;;;;;;;3.85;2.65;;;;;;;6.24;61.07;96734.47;6251892;23;20024;-82
2024/01/22 11:34:06;;;;;;;6.40;3.55;;;;;;;6.26;61.08;96735.94;6251598;22;20024;-83
2024/01/22 11:36:55;;;;;;;3.22;2.55;;;;;;;6.30;61.54;96720.91;6250802;23;20028;-79
2024/01/22 11:39:42;;;;;;;3.97;3.15;;;;;;;6.33;61.60;96712.84;6251344;23;20020;-82
2024/01/22 11:42:28;;;;;;;3.42;2.28;;;;;;;6.36;61.69;96690.03;6250835;23;20024;-80
2024/01/22 11:45:07;;;;;;;4.75;2.53;;;;;;;6.38;61.75;96689.88;6217801;23;20029;-80
2024/01/22 11:47:35;;;;;;;6.95;3.10;;;;;;;6.39;61.36;96692.31;6221122;23;20078;-82
2024/01/22 11:50:07;;;;;;;5.63;2.60;;;;;;;6.42;62.37;96683.41;6219432;23;20127;-82
2024/01/22 11:52:37;;;;;;;6.78;3.15;;;;;;;6.38;62.58;96679.50;6221631;23;20040;-82
2024/01/22 11:55:06;;;;;;;3.75;2.97;;;;;;;6.39;62.48;96669.00;6222391;23;20024;-81
2024/01/22 11:57:38;;;;;;;6.07;3.55;;;;;;;6.43;62.69;96666.91;6222259;23;20116;-81
2024/01/22 12:00:11;;;;;;;6.82;3.00;;;;;;;6.47;62.95;96668.22;6223173;23;20021;-84
2024/01/22 12:02:41;;;;;;;7.00;3.65;;;;;;;6.49;63.22;96661.09;6222245;23;20024;-83
2024/01/22 12:05:17;;;;;;;9.77;4.47;;;;;;;6.52;64.12;96658.22;6223710;23;20362;-81
2024/01/22 12:07:46;;;;;;;6.10;3.00;;;;;;;6.54;63.79;96663.25;6222631;23;20024;-82
2024/01/22 12:10:21;;;;;;;5.45;3.72;;;;;;;6.56;64.81;96682.84;6222595;23;20031;-81
2024/01/22 12:12:53;;;;;;;7.20;3.17;;;;;;;6.59;64.38;96681.72;6222816;23;20020;-80
2024/01/22 12:15:22;;;;;;;3.08;2.22;;;;;;;6.60;64.76;96678.16;6222546;23;20057;-79
2024/01/22 12:17:50;;;;;;;3.47;2.17;;;;;;;6.64;65.07;96678.66;6221747;23;20021;-81
2024/01/22 12:20:20;;;;;;;4.28;3.03;;;;;;;6.70;65.78;96688.41;6219320;23;20458;-82
2024/01/22 12:22:56;;;;;;;4.25;2.70;;;;;;;6.73;67.29;96683.72;6219427;23;20023;-82
2024/01/22 12:25:33;;;;;;;4.05;2.60;;;;;;;6.74;68.53;96669.81;6222021;23;20024;-83
2024/01/22 12:28:04;;;;;;;6.18;2.60;;;;;;;6.75;68.60;96665.44;6221819;23;20021;-81
2024/01/22 12:30:32;;;;;;;6.57;2.22;;;;;;;6.77;68.35;96666.09;6221475;23;20032;-84
2024/01/22 12:33:00;;;;;;;4.03;2.85;;;;;;;6.76;68.85;96664.47;6221187;23;20031;-82
2024/01/22 12:35:29;;;;;;;4.72;2.63;;;;;;;6.77;70.31;96659.13;6222138;23;20032;-80
2024/01/22 12:37:57;;;;;;;3.03;2.13;;;;;;;6.78;70.02;96644.38;6221432;23;20017;-82
2024/01/22 12:40:25;;;;;;;4.80;2.22;;;;;;;6.78;70.22;96650.38;6221944;23;20335;-82
2024/01/22 12:43:00;;;;;;;3.60;1.98;;;;;;;6.81;70.26;96638.88;6221573;23;20027;-77
2024/01/22 12:45:28;;;;;;;2.60;1.85;;;;;;;6.84;70.63;96642.94;6222473;23;20024;-80
2024/01/22 12:47:56;;;;;;;5.88;3.05;;;;;;;6.86;70.67;96630.63;6222817;23;20020;-84
2024/01/22 12:50:24;;;;;;;6.43;3.50;;;;;;;6.90;71.08;96627.56;6222827;23;20047;-84
2024/01/22 12:52:54;;;;;;;10.18;5.10;;;;;;;6.94;71.56;96628.88;6221794;23;20021;-81
2024/01/22 12:55:22;;;;;;;5.70;4.50;;;;;;;6.97;71.85;96638.91;6220100;23;20020;-81
2024/01/22 12:57:49;;;;;;;5.03;3.60;;;;;;;7.03;70.98;96636.69;6220396;23;20025;-79